UAAALTBS

Guest
Details From UAAA - Almaty
To LTBS - Dalaman
Flight Number -
Tags Generated
Created
Modified
Stats Distance 2,224 nm / 4,118 km
Max Altitude 0 ft / 0 m
Waypoints 4
Social Downloads 0
Likes 0
Share VATSIM

Download

Looking for another format? Having issues loading an existing format? Contact us
Advertisement - Login to hide

Notes

Generated

Route

UAAA GOKCE DALNB LTBS

ID Type Via Altitude Latitude Longitude Leg Dist Tot Dist Heading (true) Name
O UAAA APT - 0 ft / 0 m 43.34096˚ 77.01807˚ - 0 nm - -
GOKCE FIX - 0 ft / 0 m 38.16333˚ 33.09167˚ 1999 nm 1999 nm 276° / 247° -
DALNB FIX - 0 ft / 0 m 36.68955˚ 28.78193˚ 223 nm 2222 nm 248° / 245° -
O LTBS APT - 0 ft / 0 m 36.70016˚ 28.78809˚ 0 nm 2223 nm 25° / 25° -

Altitude Profile

Advertisement - Login to hide

Weather


0- 5 10 15 20 25 30 35+ Temperature / ° C

Clouds and Precipitation
Forecast for 2018-06-24 00:00 UTC. Updated 4 hours ago

Ground ~20,000 ft ~40,000 ft Winds

UAAA

Details ICAO UAAA (ALA)
Name Almaty Intl
Region Kazakhstan and Kyrgyzstan
Timezone Asia/Almaty (UTC+6.0)
Stats Elevation 2,234 ft / 681 m (AMSL)
Location 43.355235° 77.044570°
Runways 2
Magnetic Variation 5.185° E

METAR

UAAA 240130Z VRB01MPS 9999 SCT100 22/13 Q1006 R05R/CLRD65 NOSIG

Decode

TAF

TAF UAAA 232300Z 2400/2424 22005MPS 9999 BKN050CB BKN100 TX30/2409Z TN17/2401Z TEMPO 2400/2406 VRB13MPS -TSRA SQ TEMPO 2406/2418 VRB17MPS 3000 TSRA SQ BKN020CB TEMPO 2418/2424 32006MPS -TSRA

Decode

Departure Runways

ID Width Length Bearing (true) Bearing (mag) Surface Threshold Offset Overrun Length
05L 200 ft / 61 m 14,778 ft / 4,504 m 55.73° 50.54° Concrete 0 ft / 0 m 325 ft / 99 m
05R 148 ft / 45 m 14,408 ft / 4,392 m 55.72° 50.53° Asphalt 0 ft / 0 m 226 ft / 69 m
23L 148 ft / 45 m 14,408 ft / 4,392 m 235.75° 230.56° Asphalt 0 ft / 0 m 226 ft / 69 m
23R 200 ft / 61 m 14,778 ft / 4,504 m 235.76° 230.57° Concrete 0 ft / 0 m 390 ft / 119 m

LTBS

Details ICAO LTBS (DLM)
Name DALAMAN
Region Turkey
Timezone Europe/Istanbul (UTC+3.0)
Stats Elevation 20 ft / 6 m (AMSL)
Location 36.713189° 28.792513°
Runways 1
Magnetic Variation 4.929° E

METAR

LTBS 240120Z 04004KT CAVOK 21/17 Q1008 NOSIG RMK RWY19 33004KT

Decode

TAF

Not found

Destination Runways

ID Width Length Bearing (true) Bearing (mag) Surface Threshold Offset Overrun Length
01 148 ft / 45 m 9,851 ft / 3,003 m 15.24° 10.31° Concrete 0 ft / 0 m 197 ft / 60 m
19 148 ft / 45 m 9,851 ft / 3,003 m 195.25° 190.32° Concrete 0 ft / 0 m 197 ft / 60 m